Pittsburgh, PA

10:59 AM EDT on October 30, 2014 (GMT -0400)
Carrick/Pittsburgh | Change Station
CLOSE
Current Station
Personal Weather Station
Location: Pittsburgh, PA
Elevation: 1086 ft
Nearby Weather Stations

Elev 1086 ft 40.39 °N, 79.99 °W | Updated 33 seconds ago

Clear
Clear
50.0 °F
Feels Like 50.0 °F
N
3.0
Wind Variable Wind from NW
Gusts 6.0 mph

Today
High -- | Low -- °F
--% Chance of Precip.
Yesterday
High -- | Low -- °F
Precip. -- in
7:47 AM 6:19 PM
Waxing Crescent, 44% visible
Pressure 30.12 in
Visibility 10.0 miles
Clouds Clear
Dew Point 41 °F
Humidity 70%
Rainfall 0.00 in
Snow Depth Not available.
UV 1.8 out of 12
Pollen .10 out of 12
Air Quality Not available.
Flu Activity Not available.
METAR KAGC 301453Z 25005KT 10SM CLR 08/02 A3009 RMK AO2 SLP200 T00780022 50006

More Conditions Fewer Conditions

Pressure 30.12 in
Visibility 10.0 miles
Clouds Clear
Dew Point 41 °F
Humidity 70%
Rainfall 0.00 in
Snow Depth Not available.
UV 1.8 out of 12
Pollen .10 out of 12
Air Quality Not available.
Flu Activity Not available.
METAR KAGC 301453Z 25005KT 10SM CLR 08/02 A3009 RMK AO2 SLP200 T00780022 50006

More Conditions Fewer Conditions

10-Day Weather Forecast

Almanac

Astronomy

Oct. 30, 2014 Rise Set
Actual Time
Civil Twilight
Nautical Twilight
Astronomical Twilight
Moon
Length of Visible Light
Length of Day
Tomorrow will be .
, % of the Moon is Illuminated

Today's Extremes

State Highs State Lows

Community

WunderPhotos

Upload Photos

1,766,379 photos uploaded!

WunderBlogs® & News

Nearby

Air Quality

  Air Quality AQ Index Pollutant
Not available.

Snow Depth

Station Depth Elevation

Earthquake Activity

City Distance Mag. Time & Date
Minimum magnitude displayed is 2.5.

Coastal Water Temperatures

Place Temperature

Nearby Weather Stations